Time;durP1;ratioP1;P1;durP2;ratioP2;P2;SDS_P1;SDS_P2;PMS_P1;PMS_P2;Temp;Humidity;BMP_temperature;BMP_pressure;BME280_temperature;BME280_humidity;BME280_pressure;Samples;Min_cycle;Max_cycle;Signal;HPM_P1;HPM_P2
2022/11/24 00:00:31;;;;;;;25.27;3.60;;;;;;;-145.18;100.00;46709.22;5014061;28;20402;-76
2022/11/24 00:02:56;;;;;;;28.10;4.20;;;;;;;-145.18;100.00;46707.28;4995985;28;20581;-76
2022/11/24 00:05:22;;;;;;;34.17;4.73;;;;;;;-145.18;100.00;46703.38;5013672;28;20058;-76
2022/11/24 00:07:47;;;;;;;20.00;4.13;;;;;;;-145.18;100.00;46715.09;5013692;28;20052;-76
2022/11/24 00:10:13;;;;;;;20.93;3.67;;;;;;;-145.18;100.00;46711.19;5013370;28;20740;-76
2022/11/24 00:12:38;;;;;;;36.10;5.33;;;;;;;-145.18;100.00;46701.41;5013839;28;20641;-76
2022/11/24 00:15:04;;;;;;;32.63;4.30;;;;;;;-145.18;100.00;46715.09;5012494;28;20046;-76
2022/11/24 00:17:31;;;;;;;28.70;4.77;;;;;;;-145.18;100.00;46707.28;5011954;28;20060;-76
2022/11/24 00:19:56;;;;;;;32.17;5.53;;;;;;;-145.18;100.00;46711.19;5013616;28;20042;-76
2022/11/24 00:22:21;;;;;;;28.13;4.07;;;;;;;-145.18;100.00;46703.38;5012866;28;20329;-75
2022/11/24 00:24:47;;;;;;;20.97;4.63;;;;;;;-145.18;100.00;46711.19;5013499;28;20037;-76
2022/11/24 00:27:12;;;;;;;27.07;4.53;;;;;;;-145.18;100.00;46705.31;5011833;28;20053;-75
2022/11/24 00:29:37;;;;;;;31.73;3.87;;;;;;;-145.18;100.00;46713.13;5013473;28;20670;-75
2022/11/24 00:32:05;;;;;;;26.30;3.73;;;;;;;-145.18;100.00;46713.13;5012943;28;20117;-76
2022/11/24 00:34:31;;;;;;;30.83;4.73;;;;;;;-145.18;100.00;46711.19;5013308;28;20026;-76
2022/11/24 00:36:56;;;;;;;29.80;5.13;;;;;;;-145.18;100.00;46717.03;5013179;28;21096;-76
2022/11/24 00:39:22;;;;;;;29.13;4.80;;;;;;;-145.18;100.00;46701.41;5013111;28;20278;-76
2022/11/24 00:41:47;;;;;;;28.27;3.67;;;;;;;-145.18;100.00;46719.00;5012867;28;20033;-76
2022/11/24 00:44:13;;;;;;;24.10;3.10;;;;;;;-145.18;100.00;46713.13;5011744;28;20050;-75
2022/11/24 00:46:38;;;;;;;21.10;4.37;;;;;;;-145.18;100.00;46715.09;5012993;28;20037;-75
2022/11/24 00:49:04;;;;;;;19.97;3.30;;;;;;;-145.18;100.00;46699.47;4995454;28;20038;-76
2022/11/24 00:51:30;;;;;;;25.10;3.10;;;;;;;-145.18;100.00;46707.28;5012254;28;20045;-76
2022/11/24 00:53:57;;;;;;;28.87;4.10;;;;;;;-145.18;100.00;46701.41;5013020;28;20084;-76
2022/11/24 00:56:23;;;;;;;18.43;3.00;;;;;;;-145.18;100.00;46707.28;5012175;28;20034;-76
2022/11/24 00:58:49;;;;;;;22.30;3.50;;;;;;;-145.18;100.00;46703.38;5013046;28;20271;-76
2022/11/24 01:01:20;;;;;;;22.87;3.97;;;;;;;-145.18;100.00;46705.31;5011138;28;20289;-76
2022/11/24 01:03:46;;;;;;;22.13;3.30;;;;;;;-145.18;100.00;46713.13;5013095;28;20176;-76
2022/11/24 01:06:24;;;;;;;23.77;3.27;;;;;;;-145.18;100.00;46709.22;5012128;28;20811;-76
2022/11/24 01:08:50;;;;;;;19.57;4.30;;;;;;;-145.18;100.00;46705.31;5013284;28;20038;-76
2022/11/24 01:11:17;;;;;;;20.60;3.30;;;;;;;-145.18;100.00;46715.09;5012763;28;20361;-76
2022/11/24 01:13:44;;;;;;;18.20;3.57;;;;;;;-145.18;100.00;46713.13;5013210;28;20267;-76
2022/11/24 01:16:25;;;;;;;31.63;6.27;;;;;;;-145.18;100.00;46719.00;5012526;28;20705;-77
2022/11/24 01:18:51;;;;;;;15.40;3.37;;;;;;;-145.18;100.00;46715.09;5013044;28;20295;-76
2022/11/24 01:21:17;;;;;;;23.83;4.27;;;;;;;-145.18;100.00;46709.22;5012377;28;20330;-77
2022/11/24 01:23:43;;;;;;;26.33;2.83;;;;;;;-145.18;100.00;46717.03;5012627;28;20041;-76
2022/11/24 01:26:15;;;;;;;18.90;2.93;;;;;;;-145.18;100.00;46715.09;5012201;28;20285;-76
2022/11/24 01:28:40;;;;;;;24.80;3.80;;;;;;;-145.18;100.00;46724.84;5012217;28;20380;-76
2022/11/24 01:31:07;;;;;;;24.83;3.40;;;;;;;-145.18;100.00;46717.03;5012112;28;20322;-76
2022/11/24 01:33:33;;;;;;;25.57;2.83;;;;;;;-145.18;100.00;46717.03;5011897;28;20063;-76
2022/11/24 01:35:59;;;;;;;17.77;3.30;;;;;;;-145.18;100.00;46719.00;5012432;28;20271;-76
2022/11/24 01:38:26;;;;;;;22.23;2.67;;;;;;;-145.18;100.00;46717.03;5011676;28;20283;-76
2022/11/24 01:41:04;;;;;;;16.93;3.00;;;;;;;-145.18;100.00;46711.19;5012130;28;20175;-76
2022/11/24 01:43:30;;;;;;;12.67;3.30;;;;;;;-145.18;100.00;46715.09;5012035;28;20329;-76
2022/11/24 01:45:57;;;;;;;14.07;2.20;;;;;;;-145.18;100.00;46717.03;5012097;28;20659;-75
2022/11/24 01:48:29;;;;;;;20.40;2.33;;;;;;;-145.18;100.00;46717.03;5011626;28;20022;-75
2022/11/24 01:51:05;;;;;;;20.10;2.77;;;;;;;-145.18;100.00;46722.91;4994439;28;20279;-75
2022/11/24 01:53:30;;;;;;;25.23;2.90;;;;;;;-145.18;100.00;46717.03;5011433;28;20358;-75
2022/11/24 01:55:57;;;;;;;18.53;2.97;;;;;;;-145.18;100.00;46722.91;5011612;28;20362;-75
2022/11/24 01:58:27;;;;;;;23.50;2.83;;;;;;;-145.18;100.00;46722.91;5011470;28;20081;-76
2022/11/24 02:00:52;;;;;;;20.17;3.23;;;;;;;-145.18;100.00;46719.00;5011774;28;20305;-75
2022/11/24 02:03:24;;;;;;;27.37;3.60;;;;;;;-145.18;100.00;46722.91;5009702;28;20260;-76
2022/11/24 02:06:08;;;;;;;15.73;3.37;;;;;;;-145.18;100.00;46722.91;5011420;28;20065;-75
2022/11/24 02:08:55;;;;;;;14.83;3.20;;;;;;;-145.18;100.00;46722.91;5011171;28;20616;-75
2022/11/24 02:11:23;;;;;;;17.00;2.60;;;;;;;-145.18;100.00;46722.91;5011191;28;20321;-75
2022/11/24 02:13:50;;;;;;;28.20;3.50;;;;;;;-145.18;100.00;46722.91;5010546;28;20267;-75
2022/11/24 02:16:16;;;;;;;24.03;3.43;;;;;;;-145.18;100.00;46724.84;5011350;28;20368;-76
2022/11/24 02:18:42;;;;;;;17.90;3.10;;;;;;;-145.18;100.00;46722.91;5011257;28;20371;-75
2022/11/24 02:21:10;;;;;;;21.23;3.30;;;;;;;-145.18;100.00;46722.91;4994286;28;20083;-75
2022/11/24 02:23:51;;;;;;;19.40;3.00;;;;;;;-145.18;100.00;46722.91;5010968;28;20291;-75
2022/11/24 02:26:37;;;;;;;15.13;3.43;;;;;;;-145.18;100.00;46722.91;4993476;28;20267;-75
2022/11/24 02:29:03;;;;;;;11.05;2.15;;;;;;;-145.18;100.00;46726.81;5011349;28;20271;-75
2022/11/24 02:31:28;;;;;;;19.37;2.90;;;;;;;-145.18;100.00;46724.84;5011112;28;20038;-76
2022/11/24 02:33:54;;;;;;;19.13;3.13;;;;;;;-145.18;100.00;46724.84;5011403;28;20038;-75
2022/11/24 02:36:20;;;;;;;11.00;2.20;;;;;;;-145.18;100.00;46724.84;5011132;28;20117;-76
2022/11/24 02:38:45;;;;;;;22.73;2.93;;;;;;;-145.18;100.00;46724.84;5011310;28;20351;-76
2022/11/24 02:41:15;;;;;;;19.33;3.33;;;;;;;-145.18;100.00;46724.84;4993628;28;20372;-75
2022/11/24 02:43:44;;;;;;;22.23;2.67;;;;;;;-145.18;100.00;46724.84;5010988;28;20029;-75
2022/11/24 02:46:09;;;;;;;17.27;3.10;;;;;;;-145.18;100.00;46726.81;4993726;28;20333;-75
2022/11/24 02:48:36;;;;;;;22.30;3.20;;;;;;;-145.18;100.00;46724.84;5010988;28;20267;-75
2022/11/24 02:51:02;;;;;;;20.67;3.93;;;;;;;-145.18;100.00;46724.84;4993663;28;20379;-76
2022/11/24 02:53:27;;;;;;;23.87;3.20;;;;;;;-145.18;100.00;46724.84;5010852;28;20684;-76
2022/11/24 02:55:53;;;;;;;27.17;4.00;;;;;;;-145.18;100.00;46724.84;5011291;28;20275;-75
2022/11/24 02:58:18;;;;;;;19.50;3.03;;;;;;;-145.18;100.00;46724.84;5010641;28;20490;-75
2022/11/24 03:03:20;;;;;;;23.70;2.90;;;;;;;-145.18;100.00;46719.00;4152566;22;20093;-74
2022/11/24 03:05:45;;;;;;;28.87;4.47;;;;;;;-145.18;100.00;46720.94;5045652;28;20067;-74
2022/11/24 03:08:11;;;;;;;21.87;3.53;;;;;;;-145.18;100.00;46722.91;5053927;28;20274;-75
2022/11/24 03:10:37;;;;;;;16.83;3.27;;;;;;;-145.18;100.00;46726.81;5052408;28;20025;-74
2022/11/24 03:13:02;;;;;;;20.57;2.90;;;;;;;-145.18;100.00;46719.00;5034171;28;20332;-75
2022/11/24 03:15:28;;;;;;;26.10;3.53;;;;;;;-145.18;100.00;46726.81;5035029;28;20026;-74
2022/11/24 03:17:55;;;;;;;21.73;3.17;;;;;;;-145.18;100.00;46728.75;5034615;28;20041;-74
2022/11/24 03:20:21;;;;;;;20.23;3.00;;;;;;;-145.18;100.00;46722.91;5034873;28;20022;-75
2022/11/24 03:22:46;;;;;;;31.43;4.43;;;;;;;-145.18;100.00;46722.91;5034484;28;20630;-74
2022/11/24 03:25:11;;;;;;;19.40;3.93;;;;;;;-145.18;100.00;46722.91;5034043;28;20120;-75
2022/11/24 03:27:37;;;;;;;32.20;3.77;;;;;;;-145.18;100.00;46722.91;5034228;28;20057;-75
2022/11/24 03:30:03;;;;;;;23.90;3.70;;;;;;;-145.18;100.00;46719.00;5034137;28;20029;-75
2022/11/24 03:32:28;;;;;;;21.93;4.03;;;;;;;-145.18;100.00;46722.91;5034149;28;20040;-75
2022/11/24 03:34:54;;;;;;;19.97;4.00;;;;;;;-145.18;100.00;46720.94;5033806;28;20274;-75
2022/11/24 03:37:19;;;;;;;20.97;3.13;;;;;;;-145.18;100.00;46722.91;5033907;28;20064;-76
2022/11/24 03:39:45;;;;;;;17.97;3.10;;;;;;;-145.18;100.00;46717.03;5034116;28;20083;-75
2022/11/24 03:42:10;;;;;;;19.53;3.50;;;;;;;-145.18;100.00;46713.13;5033820;28;20057;-75
2022/11/24 03:44:35;;;;;;;22.13;4.57;;;;;;;-145.18;100.00;46720.94;5034391;28;20464;-74
2022/11/24 03:47:01;;;;;;;26.63;3.93;;;;;;;-145.18;100.00;46720.94;5033779;28;20040;-74
2022/11/24 03:49:26;;;;;;;27.47;4.13;;;;;;;-145.18;100.00;46717.03;5034166;28;20033;-75
2022/11/24 03:51:52;;;;;;;24.27;3.73;;;;;;;-145.18;100.00;46713.13;5016051;28;20043;-74
2022/11/24 03:54:17;;;;;;;14.47;2.73;;;;;;;-145.18;100.00;46713.13;5034385;28;20551;-74
2022/11/24 03:56:42;;;;;;;21.17;3.30;;;;;;;-145.18;100.00;46711.19;5033997;28;20481;-75
2022/11/24 03:59:08;;;;;;;22.27;3.70;;;;;;;-145.18;100.00;46717.03;5015796;28;20029;-74
2022/11/24 04:01:33;;;;;;;19.70;3.70;;;;;;;-145.18;100.00;46715.09;5033826;28;20029;-74
2022/11/24 04:03:59;;;;;;;19.00;4.20;;;;;;;-145.18;100.00;46713.13;5033381;28;20041;-74
2022/11/24 04:06:24;;;;;;;18.97;3.70;;;;;;;-145.18;100.00;46707.28;5034057;28;20036;-74
2022/11/24 04:08:50;;;;;;;23.23;4.60;;;;;;;-145.18;100.00;46711.19;5033353;28;20029;-74
2022/11/24 04:13:59;;;;;;;23.90;4.20;;;;;;;-145.18;100.00;46703.38;5033847;28;20438;-74
2022/11/24 04:16:24;;;;;;;20.00;4.30;;;;;;;-145.18;100.00;46701.41;5033605;28;20291;-75
2022/11/24 04:18:53;;;;;;;23.53;4.07;;;;;;;-145.18;100.00;46695.56;5039056;28;20120;-74
2022/11/24 04:21:19;;;;;;;18.03;3.97;;;;;;;-145.18;100.00;46715.09;5060395;28;20025;-74
2022/11/24 04:23:44;;;;;;;25.83;5.00;;;;;;;-145.18;100.00;46713.13;5063579;28;20269;-74
2022/11/24 04:26:09;;;;;;;18.23;4.37;;;;;;;-145.18;100.00;46711.19;5062408;28;20285;-74
2022/11/24 04:28:35;;;;;;;21.30;4.23;;;;;;;-145.18;100.00;46697.50;5062267;28;20370;-75
2022/11/24 04:31:02;;;;;;;22.10;4.37;;;;;;;-145.18;100.00;46705.31;5060679;28;20147;-74
2022/11/24 04:33:27;;;;;;;18.17;3.13;;;;;;;-145.18;100.00;46703.38;5060578;28;20056;-74
2022/11/24 04:35:53;;;;;;;17.87;3.17;;;;;;;-145.18;100.00;46699.47;5065103;28;20305;-75
2022/11/24 04:38:18;;;;;;;15.00;2.57;;;;;;;-145.18;100.00;46697.50;5049143;28;20464;-74
2022/11/24 04:40:43;;;;;;;13.90;1.87;;;;;;;-145.18;100.00;46713.13;5046697;28;20032;-74
2022/11/24 04:43:09;;;;;;;13.07;2.23;;;;;;;-145.18;100.00;46707.28;5032744;28;20528;-74
2022/11/24 04:45:35;;;;;;;13.53;2.37;;;;;;;-145.18;100.00;46711.19;5046451;28;20029;-74
2022/11/24 04:48:00;;;;;;;13.20;2.30;;;;;;;-145.18;100.00;46699.47;5052401;28;20079;-74
2022/11/24 04:50:25;;;;;;;13.87;2.50;;;;;;;-145.18;100.00;46711.19;5053145;28;20036;-74
2022/11/24 04:52:51;;;;;;;16.10;3.67;;;;;;;-145.18;100.00;46695.56;5052369;28;20037;-74
2022/11/24 04:55:17;;;;;;;12.37;3.93;;;;;;;-145.18;100.00;46705.31;5052560;28;20032;-74
2022/11/24 04:57:42;;;;;;;10.50;2.83;;;;;;;-145.18;100.00;46707.28;5052737;28;20029;-74
2022/11/24 05:00:09;;;;;;;10.23;2.40;;;;;;;-145.18;100.00;46701.41;5029492;28;20508;-74
2022/11/24 05:02:35;;;;;;;8.77;3.03;;;;;;;-145.18;100.00;46709.22;5040525;28;20064;-74
2022/11/24 05:05:00;;;;;;;9.43;2.73;;;;;;;-145.18;100.00;46707.28;5045441;28;20270;-74
2022/11/24 05:07:26;;;;;;;8.50;1.90;;;;;;;-145.18;100.00;46697.50;5042248;28;20358;-74
2022/11/24 05:12:35;;;;;;;10.40;1.73;;;;;;;-145.18;100.00;46713.13;5036864;28;20083;-75
2022/11/24 05:15:02;;;;;;;7.77;1.30;;;;;;;-145.18;100.00;46701.41;5037935;28;20270;-75
2022/11/24 05:17:30;;;;;;;9.67;1.60;;;;;;;-145.18;100.00;46701.41;5051531;28;20035;-75
2022/11/24 05:19:56;;;;;;;7.17;1.57;;;;;;;-145.18;100.00;46705.31;5042444;28;20869;-75
2022/11/24 05:22:22;;;;;;;8.97;2.03;;;;;;;-145.18;100.00;46703.38;5043885;28;20346;-75
2022/11/24 05:24:47;;;;;;;8.77;2.10;;;;;;;-145.18;100.00;46699.47;5044892;28;20063;-75
2022/11/24 05:27:13;;;;;;;8.73;1.87;;;;;;;-145.18;100.00;46717.03;5034173;28;20466;-75
2022/11/24 05:29:38;;;;;;;7.83;1.90;;;;;;;-145.18;100.00;46701.41;5051592;28;20481;-75
2022/11/24 05:32:03;;;;;;;9.63;1.90;;;;;;;-145.18;100.00;46707.28;5051688;28;20039;-75
2022/11/24 05:34:32;;;;;;;12.50;2.00;;;;;;;-145.18;100.00;46699.47;5051831;28;20033;-75
2022/11/24 05:37:02;;;;;;;12.93;2.93;;;;;;;-145.18;100.00;46703.38;5051946;28;20032;-75
2022/11/24 05:39:35;;;;;;;6.40;2.00;;;;;;;-145.18;100.00;46711.19;5051633;28;20349;-76
2022/11/24 05:42:39;;;;;;;13.93;2.80;;;;;;;-145.18;100.00;46703.38;5041116;28;20472;-76
2022/11/24 05:44:47;;;;;;;11.47;2.13;;;;;;;-145.18;100.00;46697.50;5043079;28;20305;-76
2022/11/24 05:47:12;;;;;;;11.07;2.43;;;;;;;-145.18;100.00;46699.47;5051276;28;20638;-76
2022/11/24 05:49:37;;;;;;;9.13;2.40;;;;;;;-145.18;100.00;46699.47;5050664;28;20044;-76
2022/11/24 05:52:03;;;;;;;8.63;2.30;;;;;;;-145.18;100.00;46691.66;5039517;28;20084;-76
2022/11/24 05:54:28;;;;;;;11.23;2.83;;;;;;;-145.18;100.00;46707.28;5031437;28;20037;-77
2022/11/24 05:56:55;;;;;;;11.70;2.77;;;;;;;-145.18;100.00;46703.38;5037718;28;20040;-76
2022/11/24 05:59:20;;;;;;;9.23;3.00;;;;;;;-145.18;100.00;46707.28;5044144;28;20026;-76
2022/11/24 06:01:46;;;;;;;11.30;3.60;;;;;;;-145.18;100.00;46699.47;5030392;28;20285;-77
2022/11/24 06:04:11;;;;;;;12.50;3.50;;;;;;;-145.18;100.00;46709.22;5030787;28;20128;-76
2022/11/24 06:06:36;;;;;;;13.87;3.73;;;;;;;-145.18;100.00;46699.47;5030686;28;20060;-76
2022/11/24 06:09:02;;;;;;;10.93;4.03;;;;;;;-145.18;100.00;46693.59;5019718;28;20544;-76
2022/11/24 06:11:27;;;;;;;10.80;3.97;;;;;;;-145.18;100.00;46713.13;5064726;28;20393;-76
2022/11/24 06:13:53;;;;;;;9.43;3.97;;;;;;;-145.18;100.00;46703.38;5042815;28;20488;-76
2022/11/24 06:16:18;;;;;;;10.23;4.47;;;;;;;-145.18;100.00;46699.47;5060753;28;20039;-76
2022/11/24 06:18:43;;;;;;;15.17;4.93;;;;;;;-145.18;100.00;46711.19;5040385;28;20033;-76
2022/11/24 06:21:09;;;;;;;14.43;6.07;;;;;;;-145.18;100.00;46711.19;5060690;28;20056;-76
2022/11/24 06:23:34;;;;;;;15.07;6.13;;;;;;;-145.18;100.00;46713.13;5061455;28;20021;-75
2022/11/24 06:26:00;;;;;;;10.70;5.00;;;;;;;-145.18;100.00;46697.50;5067568;28;20508;-76
2022/11/24 06:28:26;;;;;;;15.07;5.57;;;;;;;-145.18;100.00;46705.31;5070286;28;20383;-75
2022/11/24 06:30:52;;;;;;;14.53;5.70;;;;;;;-145.18;100.00;46713.13;5069895;28;20192;-75
2022/11/24 06:33:17;;;;;;;15.57;7.10;;;;;;;-145.18;100.00;46699.47;5070079;28;20280;-75
2022/11/24 06:35:43;;;;;;;11.80;5.40;;;;;;;-145.18;100.00;46705.31;5069899;28;20112;-75
2022/11/24 06:38:09;;;;;;;13.23;5.83;;;;;;;-145.18;100.00;46701.41;5070227;28;20028;-75
2022/11/24 06:40:34;;;;;;;13.67;5.63;;;;;;;-145.18;100.00;46703.38;5070155;28;20025;-75
2022/11/24 06:42:59;;;;;;;15.17;5.30;;;;;;;-145.18;100.00;46695.56;5070156;28;20284;-75
2022/11/24 06:45:25;;;;;;;11.73;5.30;;;;;;;-145.18;100.00;46705.31;5071053;28;20051;-75
2022/11/24 06:47:54;;;;;;;13.30;5.93;;;;;;;-145.18;100.00;46697.50;5070659;28;20071;-75
2022/11/24 06:50:20;;;;;;;13.80;6.23;;;;;;;-145.18;100.00;46703.38;5071117;28;20056;-75
2022/11/24 06:52:46;;;;;;;17.37;5.57;;;;;;;-145.18;100.00;46699.47;5051972;28;20297;-75
2022/11/24 06:55:11;;;;;;;20.60;6.23;;;;;;;-145.18;100.00;46711.19;5070697;28;20284;-75
2022/11/24 06:57:36;;;;;;;10.07;4.63;;;;;;;-145.18;100.00;46705.31;5070885;28;20033;-75
2022/11/24 07:00:06;;;;;;;10.13;4.63;;;;;;;-145.18;100.00;46703.38;5036255;28;20665;-76
2022/11/24 07:02:32;;;;;;;11.13;4.97;;;;;;;-145.18;100.00;46709.22;5070496;28;20039;-75
2022/11/24 07:04:57;;;;;;;9.67;4.57;;;;;;;-145.18;100.00;46707.28;5070274;28;20289;-75
2022/11/24 07:07:23;;;;;;;10.40;3.77;;;;;;;-145.18;100.00;46703.38;5070767;28;20083;-75
2022/11/24 07:09:48;;;;;;;12.47;4.53;;;;;;;-145.18;100.00;46703.38;5070346;28;20106;-75
2022/11/24 07:12:13;;;;;;;15.23;6.17;;;;;;;-145.18;100.00;46695.56;5070683;28;20408;-75
2022/11/24 07:14:39;;;;;;;11.07;4.30;;;;;;;-145.18;100.00;46709.22;5070479;28;20090;-75
2022/11/24 07:17:04;;;;;;;11.30;4.03;;;;;;;-145.18;100.00;46701.41;5070244;28;20048;-77
2022/11/24 07:19:30;;;;;;;15.20;5.00;;;;;;;-145.18;100.00;46711.19;5070305;28;20036;-76
2022/11/24 07:21:55;;;;;;;12.10;3.73;;;;;;;-145.18;100.00;46709.22;5051064;28;20443;-76
2022/11/24 07:24:21;;;;;;;10.63;4.03;;;;;;;-145.18;100.00;46703.38;5049985;28;20095;-75
2022/11/24 07:26:46;;;;;;;9.63;3.83;;;;;;;-145.18;100.00;46707.28;5049747;28;20041;-75
2022/11/24 07:29:12;;;;;;;15.90;4.77;;;;;;;-145.18;100.00;46699.47;5049996;28;20120;-74
2022/11/24 07:31:37;;;;;;;10.57;3.33;;;;;;;-145.18;100.00;46703.38;5050079;28;20037;-74
2022/11/24 07:34:03;;;;;;;12.93;3.57;;;;;;;-145.18;100.00;46701.41;5049454;28;20037;-74
2022/11/24 07:36:28;;;;;;;13.47;4.10;;;;;;;-145.18;100.00;46703.38;5050362;28;20644;-75
2022/11/24 07:38:53;;;;;;;10.40;3.40;;;;;;;-145.18;100.00;46697.50;5037492;28;20037;-75
2022/11/24 07:41:19;;;;;;;10.87;2.97;;;;;;;-145.18;100.00;46709.22;5037568;28;20043;-75
2022/11/24 07:43:46;;;;;;;12.03;3.10;;;;;;;-145.18;100.00;46705.31;5035682;28;20444;-75
2022/11/24 07:46:13;;;;;;;15.67;3.27;;;;;;;-145.18;100.00;46709.22;5043258;28;20029;-75
2022/11/24 07:48:39;;;;;;;11.77;3.20;;;;;;;-145.18;100.00;46697.50;5049508;28;20277;-75
2022/11/24 07:51:05;;;;;;;20.73;4.63;;;;;;;-145.18;100.00;46699.47;5049514;28;20294;-75
2022/11/24 07:53:32;;;;;;;19.60;3.40;;;;;;;-145.18;100.00;46701.41;5051976;28;20113;-76
2022/11/24 07:56:00;;;;;;;17.83;4.57;;;;;;;-145.18;100.00;46699.47;5059982;28;20261;-76
2022/11/24 07:58:27;;;;;;;17.03;3.80;;;;;;;-145.18;100.00;46701.41;5053471;28;20626;-76
2022/11/24 08:00:53;;;;;;;12.00;3.50;;;;;;;-145.18;100.00;46701.41;5052911;28;20300;-76
2022/11/24 08:03:18;;;;;;;18.60;4.20;;;;;;;-145.18;100.00;46709.22;5042459;28;20322;-76
2022/11/24 08:05:52;;;;;;;17.50;4.17;;;;;;;-145.18;100.00;46703.38;5047609;28;20071;-76
2022/11/24 08:08:17;;;;;;;11.57;3.63;;;;;;;-145.18;100.00;46701.41;5036651;28;20033;-76
2022/11/24 08:10:43;;;;;;;18.40;4.63;;;;;;;-145.18;100.00;46705.31;5053251;28;20339;-76
2022/11/24 08:13:08;;;;;;;14.70;3.57;;;;;;;-145.18;100.00;46701.41;5052561;28;20033;-76
2022/11/24 08:15:33;;;;;;;20.10;3.80;;;;;;;-145.18;100.00;46707.28;5053269;28;20033;-76
2022/11/24 08:18:00;;;;;;;18.37;4.63;;;;;;;-145.18;100.00;46701.41;5052955;28;20124;-76
2022/11/24 08:20:25;;;;;;;13.83;3.73;;;;;;;-145.18;100.00;46707.28;5053102;28;20900;-76
2022/11/24 08:22:55;;;;;;;15.23;3.67;;;;;;;-145.18;100.00;46703.38;5052836;28;20806;-76
2022/11/24 08:25:23;;;;;;;30.97;4.20;;;;;;;-145.18;100.00;46705.31;5035489;28;20040;-76
2022/11/24 08:27:48;;;;;;;19.13;4.13;;;;;;;-145.18;100.00;46705.31;5052090;28;20266;-76
2022/11/24 08:30:14;;;;;;;19.97;3.80;;;;;;;-145.18;100.00;46705.31;5034959;28;20635;-76
2022/11/24 08:32:39;;;;;;;16.73;4.10;;;;;;;-145.18;100.00;46703.38;5033041;28;20440;-76
2022/11/24 08:35:05;;;;;;;21.33;4.10;;;;;;;-145.18;100.00;46705.31;5041157;28;20033;-76
2022/11/24 08:37:31;;;;;;;17.60;4.47;;;;;;;-145.18;100.00;46701.41;5034539;28;20037;-75
2022/11/24 08:39:56;;;;;;;13.60;3.03;;;;;;;-145.18;100.00;46705.31;5052317;28;20072;-76
2022/11/24 08:42:22;;;;;;;17.27;3.40;;;;;;;-145.18;100.00;46703.38;5052775;28;20302;-75
2022/11/24 08:44:47;;;;;;;20.30;3.63;;;;;;;-145.18;100.00;46699.47;5052380;28;20037;-76
2022/11/24 08:47:12;;;;;;;14.40;3.10;;;;;;;-145.18;100.00;46697.50;5034533;28;20040;-76
2022/11/24 08:49:38;;;;;;;14.33;3.60;;;;;;;-145.18;100.00;46697.50;5052408;28;20056;-75
2022/11/24 08:52:03;;;;;;;11.43;2.20;;;;;;;-145.18;100.00;46699.47;5051978;28;20079;-75
2022/11/24 08:54:29;;;;;;;20.50;2.90;;;;;;;-145.18;100.00;46699.47;5052491;28;20045;-75
2022/11/24 08:56:54;;;;;;;16.23;3.03;;;;;;;-145.18;100.00;46699.47;5052331;28;20033;-75
2022/11/24 08:59:19;;;;;;;15.47;3.40;;;;;;;-145.18;100.00;46697.50;5052145;28;20519;-75
2022/11/24 09:01:45;;;;;;;21.13;3.93;;;;;;;-145.18;100.00;46695.56;5052336;28;20033;-75
2022/11/24 09:04:10;;;;;;;16.17;4.20;;;;;;;-145.18;100.00;46699.47;5050535;28;20102;-75
2022/11/24 09:06:35;;;;;;;16.23;2.90;;;;;;;-145.18;100.00;46699.47;5060095;28;20433;-75
2022/11/24 09:09:01;;;;;;;17.50;5.13;;;;;;;-145.18;100.00;46697.50;5050068;28;20029;-75
2022/11/24 09:11:26;;;;;;;13.83;3.53;;;;;;;-145.18;100.00;46697.50;5039720;28;20041;-76
2022/11/24 09:13:53;;;;;;;15.30;2.70;;;;;;;-145.18;100.00;46699.47;5031848;28;20032;-76
2022/11/24 09:16:24;;;;;;;17.77;3.03;;;;;;;-145.18;100.00;46699.47;5032222;28;20025;-76
2022/11/24 09:18:55;;;;;;;14.17;3.97;;;;;;;-145.18;100.00;46697.50;5031601;28;20336;-76
2022/11/24 09:21:21;;;;;;;17.37;3.10;;;;;;;-145.18;100.00;46699.47;5032096;28;20278;-75
2022/11/24 09:23:48;;;;;;;17.90;3.77;;;;;;;-145.18;100.00;46701.41;5031863;28;20274;-76
2022/11/24 09:26:17;;;;;;;11.37;3.63;;;;;;;-145.18;100.00;46699.47;5031650;28;20033;-76
2022/11/24 09:28:42;;;;;;;13.00;2.50;;;;;;;-145.18;100.00;46709.22;5032001;28;20575;-76
2022/11/24 09:31:10;;;;;;;15.53;3.73;;;;;;;-145.18;100.00;46705.31;5013617;28;20294;-76
2022/11/24 09:33:37;;;;;;;15.63;3.23;;;;;;;-145.18;100.00;46701.41;5031712;28;20504;-76
2022/11/24 09:36:04;;;;;;;12.43;2.30;;;;;;;-145.18;100.00;46703.38;5031456;28;20271;-76
2022/11/24 09:38:29;;;;;;;13.27;2.53;;;;;;;-145.18;100.00;46705.31;5031762;28;20777;-76
2022/11/24 09:40:55;;;;;;;14.07;2.77;;;;;;;-145.18;100.00;46705.31;5031299;28;20313;-76
2022/11/24 09:43:29;;;;;;;17.70;3.20;;;;;;;-145.18;100.00;46707.28;5031436;28;20031;-76
2022/11/24 09:45:59;;;;;;;15.30;4.40;;;;;;;-145.18;100.00;46707.28;5046594;28;20059;-77
2022/11/24 09:48:33;;;;;;;19.00;4.20;;;;;;;-145.18;100.00;46705.31;5051207;28;20262;-76
2022/11/24 09:51:02;;;;;;;20.00;3.53;;;;;;;-145.18;100.00;46707.28;5051345;28;20341;-76
2022/11/24 09:53:40;;;;;;;21.67;4.40;;;;;;;-145.18;100.00;46707.28;5033035;28;20682;-76
2022/11/24 09:56:24;;;;;;;22.33;4.73;;;;;;;-145.18;100.00;46705.31;5050526;28;20258;-76
2022/11/24 09:59:04;;;;;;;17.83;3.30;;;;;;;-145.18;100.00;46703.38;5044327;28;20259;-77
2022/11/24 10:01:32;;;;;;;16.90;4.23;;;;;;;-145.18;100.00;46701.41;5031483;28;20297;-76
2022/11/24 10:03:59;;;;;;;23.77;5.27;;;;;;;-145.18;100.00;46703.38;5030766;28;20378;-77
2022/11/24 10:06:43;;;;;;;19.80;4.43;;;;;;;-145.18;100.00;46693.59;5031066;28;20281;-77
2022/11/24 10:09:35;;;;;;;18.60;4.17;;;;;;;-145.18;100.00;46681.88;5030918;28;20294;-76
2022/11/24 10:12:26;;;;;;;17.13;4.20;;;;;;;-145.18;100.00;46672.13;5030993;28;20286;-76
2022/11/24 10:14:51;;;;;;;19.00;4.70;;;;;;;-145.18;100.00;46654.53;5030523;28;20259;-77
2022/11/24 10:18:08;;;;;;;20.17;4.10;;;;;;;-145.18;100.00;46635.00;5031069;28;20278;-76
2022/11/24 10:20:51;;;;;;;31.42;4.68;;;;;;;-145.18;100.00;46636.94;4997457;28;20494;-76
2022/11/24 10:23:35;;;;;;;18.50;3.57;;;;;;;-145.18;100.00;46629.13;5041279;28;20040;-77
2022/11/24 10:26:06;;;;;;;28.00;4.40;;;;;;;-145.18;100.00;46615.47;5050607;28;20277;-76
2022/11/24 10:28:41;;;;;;;28.23;4.00;;;;;;;-145.18;100.00;46613.50;5049658;28;20270;-76
2022/11/24 10:31:15;;;;;;;21.77;3.72;;;;;;;-145.18;100.00;46609.59;5050404;28;20285;-76
2022/11/24 10:33:41;;;;;;;25.23;4.63;;;;;;;-145.18;100.00;46609.59;5050509;28;20477;-76
2022/11/24 10:36:13;;;;;;;15.17;3.70;;;;;;;-145.18;100.00;46603.75;5034034;28;20612;-76
2022/11/24 10:39:12;;;;;;;18.13;3.50;;;;;;;-145.18;100.00;46597.88;5030951;28;20265;-76
2022/11/24 10:41:48;;;;;;;17.17;4.10;;;;;;;-145.18;100.00;46593.97;5030821;28;20044;-76
2022/11/24 10:44:14;;;;;;;20.30;5.73;;;;;;;-145.18;100.00;46592.03;5030114;28;20309;-76
2022/11/24 10:46:40;;;;;;;22.27;6.00;;;;;;;-145.18;100.00;46590.06;5030859;28;20112;-76
2022/11/24 10:49:05;;;;;;;20.13;4.40;;;;;;;-145.18;100.00;46590.06;5030237;28;20393;-76
2022/11/24 10:51:46;;;;;;;22.07;4.67;;;;;;;-145.18;100.00;46590.06;5036881;28;20017;-76
2022/11/24 10:54:16;;;;;;;21.57;3.57;;;;;;;-145.18;100.00;46593.97;5049902;28;20033;-76
2022/11/24 10:56:43;;;;;;;17.03;3.10;;;;;;;-145.18;100.00;46588.13;5050331;28;20328;-76
2022/11/24 10:59:24;;;;;;;19.00;3.03;;;;;;;-145.18;100.00;46590.06;5049728;28;20036;-76
2022/11/24 11:01:52;;;;;;;20.60;3.33;;;;;;;-145.18;100.00;46597.88;5050133;28;20049;-76
2022/11/24 11:04:20;;;;;;;17.37;3.83;;;;;;;-145.18;100.00;46597.88;5049882;28;20052;-76
2022/11/24 11:06:45;;;;;;;13.07;3.53;;;;;;;-145.18;100.00;46597.88;5050201;28;20037;-76
2022/11/24 11:09:20;;;;;;;15.80;3.63;;;;;;;-145.18;100.00;46603.75;5049850;28;20104;-76
2022/11/24 11:11:49;;;;;;;23.30;4.03;;;;;;;-145.18;100.00;46609.59;5049872;28;20082;-76